EKRS weather

Ringsted Airport
Ringsted, Zealand, Denmark

Public forecast

Using degrees Celsius for public forecast. Weather courtesy of forecast.io.

METAR (pilot weather report)

Closest report is Copenhagen Roskilde Airport, 14.6 nm (27.1 km) NE. Retrieved 2019/08/23 23:20 UTC (0 seconds ago):

EKRK 232320Z AUTO 00000KT 1600 BR NCD 14/14 Q1026

TAF (pilot weather forecast)

Closest forecast is Copenhagen Kastrup Airport, 31.1 nm (57.6 km) ENE. Retrieved 2019/08/23 18:30 UTC (5 hours ago):

TAF EKCH 231707Z 2318/2418 23008KT 9999 FEW040